KAKR/AKR METAR and TAF weather

Enter ICAO airport designator
Station Type Date Time Source
KAKR METAR 2021/05/12 22:54 UTC NOAA

KAKR 122254Z AUTO 36010G19KT 10SM SCT075 16/M02 A3031 RMK AO2 SLP267 T01561017


Station Type Date Time Source
KAKR Decoded METAR 2021/05/12 22:54 UTC NOAA

AKRON FULTON INTERNATIONAL, OH, United States (KAKR) 41-02N 081-28W 363M
May 12, 2021 - 06:54 PM EDT / 2021.05.12 2254 UTC
Wind: from the N (360 degrees) at 12 MPH (10 KT) gusting to 22 MPH (19 KT):0
Visibility: 10 mile(s):0
Sky conditions: partly cloudy
Temperature: 60.1 F (15.6 C)
Dew Point: 28.9 F (-1.7 C)
Relative Humidity: 30%
Pressure (altimeter): 30.31 in. Hg (1026 hPa)
ob: KAKR 122254Z AUTO 36010G19KT 10SM SCT075 16/M02 A3031 RMK AO2 SLP267 T01561017
cycle: 23

Station Type Date Time Source
KAKR TAF UTC NOAA

Error!

Example: see airport list